Cala Pula — IBID — position and weather

sailwx.info

Track history (hours):
 
Tides and Currents Weather Stations Pressure Air Temp Water Temp Dewpoint Dewpoint Depression Visibility Wind Speed Wind Dir Waves Ship Positions

Cala Pula

Last reported at 2015-Mar-21 18:11 UTC. Time now 2015-Mar-28 16:08 UTC.
Position N 35°59' W 005°28'.

Length 189 m; draft 7.1 m.

Type: Cargo ship. MMSI: 247585000.

Date/timePositionNaut miles runAvg speedWind from/ knotsBaromVisibWave heightAir tempDewpointWater temp
2015-Mar-21 18:11N 35°59' W 005°28'24421.0
2015-Mar-21 06:33N 37°27' W 000°44'2222.0
2015-Mar-21 05:33N 37°42' W 000°24'15121.4
2015-Mar-20 22:29N 39°29' E 001°53'2020.9
2015-Mar-20 21:33N 39°40' E 002°14'2121.3
2015-Mar-20 20:33N 39°52' E 002°37'15321.2
2015-Mar-20 13:20N 41°15' E 005°26'2221.2
2015-Mar-20 12:18N 41°27' E 005°51'19121.3
2015-Mar-20 03:19N 43°08' E 009°31'27 1.1
2015-Mar-19 02:31N 43°30' E 009°11'2020.4
2015-Mar-19 01:32N 43°47' E 008°56'2020.6
2015-Mar-19 00:34N 44°04' E 008°41'83 3.3
2015-Mar-17 23:33N 43°14' E 007°09'2019.9
2015-Mar-17 22:33N 43°01' E 006°49'10216.8
2015-Mar-17 16:28N 42°52' E 004°29'1112.4
2015-Mar-17 15:33N 42°52' E 004°14'1717.4
2015-Mar-17 14:33N 42°51' E 003°50'2318.0
2015-Mar-17 13:18N 42°30' E 003°39'1617.7
2015-Mar-17 12:23N 42°14' E 003°36'1818.3
2015-Mar-17 11:25N 41°57' E 003°30'1516.6
2015-Mar-17 10:31N 41°45' E 003°17'1414.0
2015-Mar-17 09:32N 41°35' E 003°04'1510.1
2015-Mar-17 08:05N 41°26' E 002°49'274 9.6
2015-Mar-16 03:32N 37°38' W 000°27'2321.1
2015-Mar-16 02:27N 37°22' W 000°47'22920.9
2015-Mar-15 15:29N 35°59' W 005°14'  
Track history (hours):
 
Tides and Currents Weather Stations Pressure Air Temp Water Temp Dewpoint Dewpoint Depression Visibility Wind Speed Wind Dir Waves Ship Positions

Cala Pula

Last reported at 2015-Mar-21 18:11 UTC. Time now 2015-Mar-28 16:08 UTC.
Position N 35°59' W 005°28'.

Length 189 m; draft 7.1 m.

Type: Cargo ship. MMSI: 247585000.

Date/timePositionNaut miles runAvg speedWind from/ knotsBaromVisibWave heightAir tempDewpointWater temp
2015-Mar-21 18:11N 35°59' W 005°28'24421.0
2015-Mar-21 06:33N 37°27' W 000°44'2222.0
2015-Mar-21 05:33N 37°42' W 000°24'15121.4
2015-Mar-20 22:29N 39°29' E 001°53'2020.9
2015-Mar-20 21:33N 39°40' E 002°14'2121.3
2015-Mar-20 20:33N 39°52' E 002°37'15321.2
2015-Mar-20 13:20N 41°15' E 005°26'2221.2
2015-Mar-20 12:18N 41°27' E 005°51'19121.3
2015-Mar-20 03:19N 43°08' E 009°31'27 1.1
2015-Mar-19 02:31N 43°30' E 009°11'2020.4
2015-Mar-19 01:32N 43°47' E 008°56'2020.6
2015-Mar-19 00:34N 44°04' E 008°41'83 3.3
2015-Mar-17 23:33N 43°14' E 007°09'2019.9
2015-Mar-17 22:33N 43°01' E 006°49'10216.8
2015-Mar-17 16:28N 42°52' E 004°29'1112.4
2015-Mar-17 15:33N 42°52' E 004°14'1717.4
2015-Mar-17 14:33N 42°51' E 003°50'2318.0
2015-Mar-17 13:18N 42°30' E 003°39'1617.7
2015-Mar-17 12:23N 42°14' E 003°36'1818.3
2015-Mar-17 11:25N 41°57' E 003°30'1516.6
2015-Mar-17 10:31N 41°45' E 003°17'1414.0
2015-Mar-17 09:32N 41°35' E 003°04'1510.1
2015-Mar-17 08:05N 41°26' E 002°49'274 9.6
2015-Mar-16 03:32N 37°38' W 000°27'2321.1
2015-Mar-16 02:27N 37°22' W 000°47'22920.9
2015-Mar-15 15:29N 35°59' W 005°14'  

Dump ship's entire track history